Terminal Aerodrome Forecast
Issued by NWS

Current Version | Previous Version | Text Only | Print | Product List | Glossary On
Versions: 1 2 3 4 5 6 7 8 9 10 11 12 13 14 15 16 17 18 19 20 21 22 23 24
000
FTUS44 KBMX 051300 AAA
TAFTOI
TAF AMD
KTOI 051325Z 0513/0612 26010G20KT 6SM -RA BR OVC005
      TEMPO 0515/0519 30010G22KT OVC012
     FM051900 35013KT 6SM -DZ OVC012
     FM060700 35009KT P6SM OVC100=

USA.gov is the U.S. government's official web portal to all federal, state and local government web resources and services.